Tone — LM4474 — position and weather

sailwx.info

Track history (hours):
 
Tides and Currents Weather Stations Pressure Air Temp Water Temp Dewpoint Dewpoint Depression Visibility Wind Speed Wind Dir Waves Ship Positions

Tone

Last reported at 2017-Oct-17 16:10 UTC. Time now 2017-Oct-17 18:55 UTC.
Position N 70°04' E 029°44'.

Length 8 m.

Type: Fishing. MMSI: 257407700.

Date/timePositionNaut miles runAvg speedWind from/ knotsBaromVisibWave heightAir tempDewpointWater temp
2017-Oct-17 16:10N 70°04' E 029°44'0 0.0
2017-Oct-17 15:52N 70°04' E 029°44'0 0.0
2017-Oct-17 15:19N 70°04' E 029°44'0 0.0
2017-Oct-17 14:49N 70°04' E 029°44'0 0.0
2017-Oct-17 14:28N 70°04' E 029°44'0 0.0
2017-Oct-17 13:55N 70°04' E 029°44'0 0.0
2017-Oct-17 12:16N 70°04' E 029°44'0 0.0
2017-Oct-17 11:40N 70°04' E 029°44'0 2.6
2017-Oct-17 11:30N 70°04' E 029°43'2 3.1
2017-Oct-17 11:00N 70°04' E 029°39'1 2.2
2017-Oct-17 10:20N 70°04' E 029°34'0 0.5
2017-Oct-17 09:56N 70°04' E 029°35'0 1.1
2017-Oct-17 09:30N 70°04' E 029°36'0 0.1
2017-Oct-17 09:00N 70°04' E 029°36'2 4.8
2017-Oct-17 08:30N 70°05' E 029°43'1 0.4
2017-Oct-17 07:02N 70°04' E 029°44'0 0.0
2017-Oct-17 06:59N 70°04' E 029°44'0 0.0
2017-Oct-17 06:08N 70°04' E 029°44'0 0.0
2017-Oct-17 05:44N 70°04' E 029°44'0 0.0
2017-Oct-17 05:29N 70°04' E 029°44'0 0.0
2017-Oct-17 04:56N 70°04' E 029°44'0 0.0
2017-Oct-17 04:20N 70°04' E 029°44'0 0.0
2017-Oct-17 03:38N 70°04' E 029°44'0 0.0
2017-Oct-17 03:29N 70°04' E 029°44'0 0.0
2017-Oct-17 02:56N 70°04' E 029°44'0 0.0
2017-Oct-17 02:11N 70°04' E 029°44'0 0.0
2017-Oct-17 01:56N 70°04' E 029°44'0 0.0
2017-Oct-17 01:26N 70°04' E 029°44'0 0.0
2017-Oct-17 00:20N 70°04' E 029°44'0 0.0
2017-Oct-16 22:44N 70°04' E 029°44'0 0.0
2017-Oct-16 22:23N 70°04' E 029°44'0 0.0
2017-Oct-16 21:53N 70°04' E 029°44'0 0.0
2017-Oct-16 21:29N 70°04' E 029°44'0 0.0
2017-Oct-16 20:59N 70°04' E 029°44'0 0.0
2017-Oct-16 20:29N 70°04' E 029°44'0 0.0
2017-Oct-16 19:50N 70°04' E 029°44'0 0.0
2017-Oct-16 19:29N 70°04' E 029°44'0 0.0
2017-Oct-16 18:59N 70°04' E 029°44'0 0.0
2017-Oct-16 18:23N 70°04' E 029°44'0 0.0
2017-Oct-16 17:59N 70°04' E 029°44'0 0.0
2017-Oct-16 17:20N 70°04' E 029°44'0 0.0
2017-Oct-16 16:41N 70°04' E 029°44'0 0.0
2017-Oct-16 16:26N 70°04' E 029°44'0 0.0
2017-Oct-16 15:41N 70°04' E 029°44'0 0.0
2017-Oct-16 15:23N 70°04' E 029°44'0 0.0
2017-Oct-16 14:53N 70°04' E 029°44'0 0.0
2017-Oct-16 13:20N 70°04' E 029°44'0 0.0
2017-Oct-16 12:53N 70°04' E 029°44'0 0.0
2017-Oct-16 11:08N 70°04' E 029°44'0 0.0
2017-Oct-16 09:59N 70°04' E 029°44'0 0.0
2017-Oct-16 09:20N 70°04' E 029°44'0 0.0
2017-Oct-16 08:59N 70°04' E 029°44'0 0.0
2017-Oct-16 08:29N 70°04' E 029°44'0 0.0
2017-Oct-16 07:59N 70°04' E 029°44'0 0.0
2017-Oct-16 07:29N 70°04' E 029°44'0 0.0
2017-Oct-16 06:59N 70°04' E 029°44'0 0.0
2017-Oct-16 05:50N 70°04' E 029°44'0 0.0
2017-Oct-16 05:29N 70°04' E 029°44'0 0.0
2017-Oct-16 04:53N 70°04' E 029°44'0 0.0
2017-Oct-16 03:38N 70°04' E 029°44'0 0.0
2017-Oct-15 22:38N 70°04' E 029°44'0 0.0
2017-Oct-15 22:14N 70°04' E 029°44'0 0.0
2017-Oct-15 21:59N 70°04' E 029°44'0 0.0
2017-Oct-15 21:26N 70°04' E 029°44'0 0.0
2017-Oct-15 20:14N 70°04' E 029°44'0 0.0
2017-Oct-15 19:11N 70°04' E 029°44'0 0.0
2017-Oct-15 14:44N 70°04' E 029°44'3 3.6
2017-Oct-15 14:00N 70°04' E 029°37'1 1.1
2017-Oct-15 13:29N 70°04' E 029°35'0 0.3
2017-Oct-15 12:53N 70°04' E 029°36'0 0.4
2017-Oct-15 12:29N 70°04' E 029°36'1 2.3
2017-Oct-15 12:00N 70°04' E 029°39'2 0.7
2017-Oct-15 09:12N 70°04' E 029°44'0 0.0
2017-Oct-15 09:00N 70°04' E 029°44'0 0.0
2017-Oct-15 08:30N 70°04' E 029°44'0 0.0
2017-Oct-15 08:00N 70°04' E 029°44'0 0.0
2017-Oct-15 07:30N 70°04' E 029°44'0 0.0
2017-Oct-15 07:00N 70°04' E 029°44'0 0.0
2017-Oct-15 06:27N 70°04' E 029°44'0 0.0
2017-Oct-15 06:00N 70°04' E 029°44'0 0.0
2017-Oct-15 05:27N 70°04' E 029°44'0 0.0
2017-Oct-15 04:48N 70°04' E 029°44'0 0.0
2017-Oct-15 04:30N 70°04' E 029°44'0 0.0
2017-Oct-15 03:48N 70°04' E 029°44'0 0.0
2017-Oct-15 03:27N 70°04' E 029°44'0 0.0
2017-Oct-15 03:00N 70°04' E 029°44'0 0.0
2017-Oct-15 01:48N 70°04' E 029°44'0 0.0
2017-Oct-15 01:30N 70°04' E 029°44'0 0.0
2017-Oct-15 00:24N 70°04' E 029°44'0 0.0
2017-Oct-14 23:54N 70°04' E 029°44'0 0.0
2017-Oct-14 22:24N 70°04' E 029°44'0 0.0
2017-Oct-14 21:54N 70°04' E 029°44'0 0.0
2017-Oct-14 21:21N 70°04' E 029°44'0 0.0
2017-Oct-14 21:00N 70°04' E 029°44'0 0.0
2017-Oct-14 20:30N 70°04' E 029°44'0 0.0
2017-Oct-14 19:51N 70°04' E 029°44'0 0.0
2017-Oct-14 19:27N 70°04' E 029°44'0 0.0
2017-Oct-14 18:48N 70°04' E 029°44'0 0.0
2017-Oct-14 18:21N 70°04' E 029°44'0 0.0
2017-Oct-14 17:57N 70°04' E 029°44'0 0.0
2017-Oct-14 17:24N 70°04' E 029°44'0 0.0
2017-Oct-14 16:57N 70°04' E 029°44'0 0.0
2017-Oct-14 16:30N 70°04' E 029°44'0 0.0
2017-Oct-14 16:00N 70°04' E 029°44'0 0.0
2017-Oct-14 15:18N 70°04' E 029°44'0 0.0
2017-Oct-14 14:33N 70°04' E 029°44'0 0.0
2017-Oct-14 14:27N 70°04' E 029°44'0 0.0
2017-Oct-14 14:00N 70°04' E 029°44'0 0.0
2017-Oct-14 07:45N 70°04' E 029°44'0 0.0
2017-Oct-14 07:30N 70°04' E 029°44'0 0.0
2017-Oct-14 07:00N 70°04' E 029°44'0 0.0
2017-Oct-14 05:36N 70°04' E 029°44'0 0.0
2017-Oct-14 05:30N 70°04' E 029°44'0 0.0
2017-Oct-14 04:57N 70°04' E 029°44'0 0.0
2017-Oct-14 04:30N 70°04' E 029°44'0 0.0
2017-Oct-14 04:00N 70°04' E 029°44'0 0.0
2017-Oct-14 03:30N 70°04' E 029°44'0 0.0
2017-Oct-14 03:00N 70°04' E 029°44'0 0.0
2017-Oct-14 02:30N 70°04' E 029°44'0 0.0
2017-Oct-14 01:57N 70°04' E 029°44'0 0.0
2017-Oct-14 01:24N 70°04' E 029°44'0 0.0
2017-Oct-14 00:42N 70°04' E 029°44'0 0.0
2017-Oct-13 23:06N 70°04' E 029°44'0 0.0
2017-Oct-13 21:24N 70°04' E 029°44'0 0.0
2017-Oct-13 15:36N 70°04' E 029°44'0 0.0
2017-Oct-13 15:18N 70°04' E 029°44'0 0.0
2017-Oct-13 14:48N 70°04' E 029°44'0 0.0
2017-Oct-13 14:30N 70°04' E 029°44'0 0.0
2017-Oct-13 12:39N 70°04' E 029°44'0 0.0
2017-Oct-13 12:27N 70°04' E 029°44'0 0.0
2017-Oct-13 11:57N 70°04' E 029°44'0 0.0
2017-Oct-13 11:21N 70°04' E 029°44'0 0.0
2017-Oct-13 10:57N 70°04' E 029°44'0 0.0
2017-Oct-13 10:24N 70°04' E 029°44'0 0.0
2017-Oct-13 10:00N 70°04' E 029°44'0 0.0
2017-Oct-13 09:24N 70°04' E 029°44'0 0.0
2017-Oct-13 09:00N 70°04' E 029°44'0 0.0
2017-Oct-13 08:21N 70°04' E 029°44'0 0.0
2017-Oct-13 03:27N 70°04' E 029°44'0 0.0
2017-Oct-13 02:15N 70°04' E 029°44'0 0.0
2017-Oct-13 02:00N 70°04' E 029°44'0 0.0
2017-Oct-13 01:30N 70°04' E 029°44'0 0.0
2017-Oct-13 00:54N 70°04' E 029°44'0 0.0
2017-Oct-12 23:54N 70°04' E 029°44'0 0.0
2017-Oct-12 23:15N 70°04' E 029°44'0 0.0
2017-Oct-12 22:57N 70°04' E 029°44'0 0.0
2017-Oct-12 21:48N 70°04' E 029°44'0 0.0
2017-Oct-12 21:27N 70°04' E 029°44'0 0.0
2017-Oct-12 21:00N 70°04' E 029°44'0 0.0
2017-Oct-12 17:33N 70°04' E 029°44'0 0.0
2017-Oct-12 17:30N 70°04' E 029°44'0 0.0
2017-Oct-12 16:57N 70°04' E 029°44'0 0.0
2017-Oct-12 16:18N 70°04' E 029°44'0 0.0
2017-Oct-12 15:51N 70°04' E 029°44'0 0.0
2017-Oct-12 15:18N 70°04' E 029°44'0 0.0
2017-Oct-12 14:48N 70°04' E 029°44'0 0.0
2017-Oct-12 14:30N 70°04' E 029°44'0 0.0
2017-Oct-12 14:00N 70°04' E 029°44'0 0.0
2017-Oct-12 13:30N 70°04' E 029°44'0 0.5
2017-Oct-12 12:59N 70°04' E 029°45'0 0.0
2017-Oct-12 12:29N 70°04' E 029°45'0 0.0
2017-Oct-12 11:59N 70°04' E 029°45'1 1.1
2017-Oct-12 11:29N 70°04' E 029°43'3 5.8
2017-Oct-12 10:59N 70°04' E 029°35'1 1.6
2017-Oct-12 10:28N 70°04' E 029°32'2 3.2
2017-Oct-12 09:57N 70°04' E 029°37'0 0.3
2017-Oct-12 09:28N 70°03' E 029°37'0 0.3
2017-Oct-12 08:58N 70°04' E 029°37'0 0.2
2017-Oct-12 08:25N 70°04' E 029°37'0 0.9
2017-Oct-12 08:00N 70°04' E 029°38'2 0.3
2017-Oct-12 00:21N 70°04' E 029°44'0 0.0
2017-Oct-11 23:42N 70°04' E 029°44'0 0.0
2017-Oct-11 23:12N 70°04' E 029°44'0 0.0
2017-Oct-11 23:00N 70°04' E 029°44'0 0.0
2017-Oct-11 21:45N 70°04' E 029°44'0 0.0
2017-Oct-11 21:12N 70°04' E 029°44'0 0.0
2017-Oct-11 17:24N 70°04' E 029°44'0 0.0
2017-Oct-11 16:57N 70°04' E 029°44'0 0.0
2017-Oct-11 00:00N 70°04' E 029°44'0 0.0
2017-Oct-10 23:27N 70°04' E 029°44'0 0.0
2017-Oct-10 23:00N 70°04' E 029°44'0 0.0
2017-Oct-10 22:30N 70°04' E 029°44'0 0.0
2017-Oct-10 21:48N 70°04' E 029°44'0 0.0
2017-Oct-10 21:30N 70°04' E 029°44'0 0.0
2017-Oct-10 21:00N 70°04' E 029°44'0 0.0
2017-Oct-10 20:12N 70°04' E 029°44'0 0.0
2017-Oct-10 20:00N 70°04' E 029°44'0 0.0
2017-Oct-10 19:21N 70°04' E 029°44'0 0.0
2017-Oct-10 18:36N 70°04' E 029°44'0 0.0
2017-Oct-10 18:21N 70°04' E 029°44'0 0.0
2017-Oct-10 18:00N 70°04' E 029°44'0 0.0
2017-Oct-10 17:21N 70°04' E 029°44'0 0.0
2017-Oct-10 16:57N 70°04' E 029°44'0 0.0
2017-Oct-10 16:30N 70°04' E 029°44'0 0.0
2017-Oct-10 16:00N 70°04' E 029°44'0 0.0
2017-Oct-10 15:27N 70°04' E 029°44'0 0.0
2017-Oct-10 15:00N 70°04' E 029°44'0 0.0
2017-Oct-10 14:00N 70°04' E 029°44'0 0.0
2017-Oct-10 13:24N 70°04' E 029°44'0 0.0
2017-Oct-10 13:00N 70°04' E 029°44'0 0.0
2017-Oct-10 12:27N 70°04' E 029°44'0 0.0
2017-Oct-10 12:00N 70°04' E 029°44'0 0.0
2017-Oct-10 11:30N 70°04' E 029°44'0 0.0
2017-Oct-10 11:00N 70°04' E 029°44'0 0.0
2017-Oct-10 10:30N 70°04' E 029°44'0 0.0
2017-Oct-10 03:57N 70°04' E 029°44'0 0.0
2017-Oct-10 03:30N 70°04' E 029°44'0 0.0
2017-Oct-10 03:00N 70°04' E 029°44'0 0.0
2017-Oct-10 02:30N 70°04' E 029°44'0 0.0
2017-Oct-10 02:00N 70°04' E 029°44'0 0.0
2017-Oct-10 01:30N 70°04' E 029°44'0 0.0
2017-Oct-10 01:00N 70°04' E 029°44'0 0.0
2017-Oct-10 00:27N 70°04' E 029°44'0 0.0
2017-Oct-10 00:00N 70°04' E 029°44'0 0.0
2017-Oct-09 23:30N 70°04' E 029°44'0 0.0
2017-Oct-09 23:00N 70°04' E 029°44'0 0.0
2017-Oct-09 22:27N 70°04' E 029°44'0 0.0
2017-Oct-09 21:54N 70°04' E 029°44'0 0.0
2017-Oct-09 21:27N 70°04' E 029°44'0 0.0
2017-Oct-09 15:09N 70°04' E 029°44'0 0.0
2017-Oct-09 15:00N 70°04' E 029°44'0 0.0
2017-Oct-09 14:26N 70°04' E 029°44'2 4.3
2017-Oct-09 14:00N 70°04' E 029°39'2 4.0
2017-Oct-09 13:30N 70°04' E 029°45'0 0.1
2017-Oct-09 12:58N 70°04' E 029°45'0 0.0
2017-Oct-09 12:30N 70°04' E 029°45'0 0.0
2017-Oct-09 12:00N 70°04' E 029°45'0 0.7
2017-Oct-09 11:28N 70°04' E 029°44'2 4.7
2017-Oct-09 11:00N 70°04' E 029°38'0 0.2
2017-Oct-09 10:28N 70°04' E 029°37'0 0.0
2017-Oct-09 09:58N 70°04' E 029°37'2 3.6
2017-Oct-09 09:28N 70°05' E 029°33'1 1.3
2017-Oct-09 09:00N 70°04' E 029°33'0 0.0
2017-Oct-09 08:30N 70°04' E 029°34'1 2.8
2017-Oct-09 07:59N 70°03' E 029°37'1 1.7
2017-Oct-09 07:30N 70°03' E 029°40'0 0.1
2017-Oct-09 07:00N 70°03' E 029°40'2 2.2
2017-Oct-09 06:05N 70°04' E 029°44'0 0.0
2017-Oct-09 05:56N 70°04' E 029°44'0 0.0
2017-Oct-09 05:29N 70°04' E 029°44'0 0.0
2017-Oct-09 04:56N 70°04' E 029°44'0 0.0
2017-Oct-09 04:29N 70°04' E 029°44'0 0.0
2017-Oct-09 03:59N 70°04' E 029°44'0 0.0
2017-Oct-09 03:29N 70°04' E 029°44'0 0.0
2017-Oct-09 02:59N 70°04' E 029°44'0 0.0
2017-Oct-09 02:29N 70°04' E 029°44'0 0.0
2017-Oct-09 01:59N 70°04' E 029°44'0 0.0
2017-Oct-09 01:29N 70°04' E 029°44'0 0.0
2017-Oct-09 00:59N 70°04' E 029°44'0 0.0
2017-Oct-09 00:29N 70°04' E 029°44'0 0.0
2017-Oct-08 23:59N 70°04' E 029°44'0 0.0
2017-Oct-08 23:29N 70°04' E 029°44'0 0.0
2017-Oct-08 22:59N 70°04' E 029°44'0 0.0
2017-Oct-08 22:29N 70°04' E 029°44'0 0.0
2017-Oct-08 21:59N 70°04' E 029°44'0 0.0
2017-Oct-08 19:38N 70°04' E 029°44'0 0.0
2017-Oct-08 19:23N 70°04' E 029°44'0 0.0
2017-Oct-08 17:23N 70°04' E 029°44'0 0.0
2017-Oct-08 16:59N 70°04' E 029°44'0 0.0
2017-Oct-08 16:29N 70°04' E 029°44'0 0.0
2017-Oct-08 15:59N 70°04' E 029°44'0 0.0
2017-Oct-08 15:29N 70°04' E 029°44'0 0.0
2017-Oct-08 14:56N 70°04' E 029°44'0 0.0
2017-Oct-08 14:23N 70°04' E 029°44'0 0.0
2017-Oct-08 13:53N 70°04' E 029°44'0 0.0
2017-Oct-08 13:29N 70°04' E 029°44'0 0.0
2017-Oct-08 12:59N 70°04' E 029°44'0 0.0
2017-Oct-08 12:29N 70°04' E 029°44'0 0.0
2017-Oct-08 11:59N 70°04' E 029°44'0 0.0
2017-Oct-08 11:29N 70°04' E 029°44'0 0.0
2017-Oct-08 10:59N 70°04' E 029°44'0 0.0
2017-Oct-08 10:29N 70°04' E 029°44'0 0.0
2017-Oct-08 09:59N 70°04' E 029°44'0 0.0
2017-Oct-08 09:29N 70°04' E 029°44'0 0.0
2017-Oct-08 08:56N 70°04' E 029°44'0 0.0
2017-Oct-08 08:29N 70°04' E 029°44'0 0.0
2017-Oct-08 04:41N 70°04' E 029°44'0 0.0
2017-Oct-08 02:23N 70°04' E 029°44'0 0.0
2017-Oct-08 01:59N 70°04' E 029°44'0 0.0
2017-Oct-08 01:11N 70°04' E 029°44'0 0.0
2017-Oct-08 00:59N 70°04' E 029°44'0 0.0
2017-Oct-08 00:29N 70°04' E 029°44'0 0.0
2017-Oct-07 23:59N 70°04' E 029°44'0 0.0
2017-Oct-07 23:26N 70°04' E 029°44'0 0.0
2017-Oct-07 22:56N 70°04' E 029°44'0 0.0
2017-Oct-07 22:29N 70°04' E 029°44'0 0.0
2017-Oct-07 21:59N 70°04' E 029°44'0 0.0
2017-Oct-07 21:26N 70°04' E 029°44'  
Track history (hours):
 
Tides and Currents Weather Stations Pressure Air Temp Water Temp Dewpoint Dewpoint Depression Visibility Wind Speed Wind Dir Waves Ship Positions

Tone

Last reported at 2017-Oct-17 16:10 UTC. Time now 2017-Oct-17 18:55 UTC.
Position N 70°04' E 029°44'.

Length 8 m.

Type: Fishing. MMSI: 257407700.

Date/timePositionNaut miles runAvg speedWind from/ knotsBaromVisibWave heightAir tempDewpointWater temp
2017-Oct-17 16:10N 70°04' E 029°44'0 0.0
2017-Oct-17 15:52N 70°04' E 029°44'0 0.0
2017-Oct-17 15:19N 70°04' E 029°44'0 0.0
2017-Oct-17 14:49N 70°04' E 029°44'0 0.0
2017-Oct-17 14:28N 70°04' E 029°44'0 0.0
2017-Oct-17 13:55N 70°04' E 029°44'0 0.0
2017-Oct-17 12:16N 70°04' E 029°44'0 0.0
2017-Oct-17 11:40N 70°04' E 029°44'0 2.6
2017-Oct-17 11:30N 70°04' E 029°43'2 3.1
2017-Oct-17 11:00N 70°04' E 029°39'1 2.2
2017-Oct-17 10:20N 70°04' E 029°34'0 0.5
2017-Oct-17 09:56N 70°04' E 029°35'0 1.1
2017-Oct-17 09:30N 70°04' E 029°36'0 0.1
2017-Oct-17 09:00N 70°04' E 029°36'2 4.8
2017-Oct-17 08:30N 70°05' E 029°43'1 0.4
2017-Oct-17 07:02N 70°04' E 029°44'0 0.0
2017-Oct-17 06:59N 70°04' E 029°44'0 0.0
2017-Oct-17 06:08N 70°04' E 029°44'0 0.0
2017-Oct-17 05:44N 70°04' E 029°44'0 0.0
2017-Oct-17 05:29N 70°04' E 029°44'0 0.0
2017-Oct-17 04:56N 70°04' E 029°44'0 0.0
2017-Oct-17 04:20N 70°04' E 029°44'0 0.0
2017-Oct-17 03:38N 70°04' E 029°44'0 0.0
2017-Oct-17 03:29N 70°04' E 029°44'0 0.0
2017-Oct-17 02:56N 70°04' E 029°44'0 0.0
2017-Oct-17 02:11N 70°04' E 029°44'0 0.0
2017-Oct-17 01:56N 70°04' E 029°44'0 0.0
2017-Oct-17 01:26N 70°04' E 029°44'0 0.0
2017-Oct-17 00:20N 70°04' E 029°44'0 0.0
2017-Oct-16 22:44N 70°04' E 029°44'0 0.0
2017-Oct-16 22:23N 70°04' E 029°44'0 0.0
2017-Oct-16 21:53N 70°04' E 029°44'0 0.0
2017-Oct-16 21:29N 70°04' E 029°44'0 0.0
2017-Oct-16 20:59N 70°04' E 029°44'0 0.0
2017-Oct-16 20:29N 70°04' E 029°44'0 0.0
2017-Oct-16 19:50N 70°04' E 029°44'0 0.0
2017-Oct-16 19:29N 70°04' E 029°44'0 0.0
2017-Oct-16 18:59N 70°04' E 029°44'0 0.0
2017-Oct-16 18:23N 70°04' E 029°44'0 0.0
2017-Oct-16 17:59N 70°04' E 029°44'0 0.0
2017-Oct-16 17:20N 70°04' E 029°44'0 0.0
2017-Oct-16 16:41N 70°04' E 029°44'0 0.0
2017-Oct-16 16:26N 70°04' E 029°44'0 0.0
2017-Oct-16 15:41N 70°04' E 029°44'0 0.0
2017-Oct-16 15:23N 70°04' E 029°44'0 0.0
2017-Oct-16 14:53N 70°04' E 029°44'0 0.0
2017-Oct-16 13:20N 70°04' E 029°44'0 0.0
2017-Oct-16 12:53N 70°04' E 029°44'0 0.0
2017-Oct-16 11:08N 70°04' E 029°44'0 0.0
2017-Oct-16 09:59N 70°04' E 029°44'0 0.0
2017-Oct-16 09:20N 70°04' E 029°44'0 0.0
2017-Oct-16 08:59N 70°04' E 029°44'0 0.0
2017-Oct-16 08:29N 70°04' E 029°44'0 0.0
2017-Oct-16 07:59N 70°04' E 029°44'0 0.0
2017-Oct-16 07:29N 70°04' E 029°44'0 0.0
2017-Oct-16 06:59N 70°04' E 029°44'0 0.0
2017-Oct-16 05:50N 70°04' E 029°44'0 0.0
2017-Oct-16 05:29N 70°04' E 029°44'0 0.0
2017-Oct-16 04:53N 70°04' E 029°44'0 0.0
2017-Oct-16 03:38N 70°04' E 029°44'0 0.0
2017-Oct-15 22:38N 70°04' E 029°44'0 0.0
2017-Oct-15 22:14N 70°04' E 029°44'0 0.0
2017-Oct-15 21:59N 70°04' E 029°44'0 0.0
2017-Oct-15 21:26N 70°04' E 029°44'0 0.0
2017-Oct-15 20:14N 70°04' E 029°44'0 0.0
2017-Oct-15 19:11N 70°04' E 029°44'0 0.0
2017-Oct-15 14:44N 70°04' E 029°44'3 3.6
2017-Oct-15 14:00N 70°04' E 029°37'1 1.1
2017-Oct-15 13:29N 70°04' E 029°35'0 0.3
2017-Oct-15 12:53N 70°04' E 029°36'0 0.4
2017-Oct-15 12:29N 70°04' E 029°36'1 2.3
2017-Oct-15 12:00N 70°04' E 029°39'2 0.7
2017-Oct-15 09:12N 70°04' E 029°44'0 0.0
2017-Oct-15 09:00N 70°04' E 029°44'0 0.0
2017-Oct-15 08:30N 70°04' E 029°44'0 0.0
2017-Oct-15 08:00N 70°04' E 029°44'0 0.0
2017-Oct-15 07:30N 70°04' E 029°44'0 0.0
2017-Oct-15 07:00N 70°04' E 029°44'0 0.0
2017-Oct-15 06:27N 70°04' E 029°44'0 0.0
2017-Oct-15 06:00N 70°04' E 029°44'0 0.0
2017-Oct-15 05:27N 70°04' E 029°44'0 0.0
2017-Oct-15 04:48N 70°04' E 029°44'0 0.0
2017-Oct-15 04:30N 70°04' E 029°44'0 0.0
2017-Oct-15 03:48N 70°04' E 029°44'0 0.0
2017-Oct-15 03:27N 70°04' E 029°44'0 0.0
2017-Oct-15 03:00N 70°04' E 029°44'0 0.0
2017-Oct-15 01:48N 70°04' E 029°44'0 0.0
2017-Oct-15 01:30N 70°04' E 029°44'0 0.0
2017-Oct-15 00:24N 70°04' E 029°44'0 0.0
2017-Oct-14 23:54N 70°04' E 029°44'0 0.0
2017-Oct-14 22:24N 70°04' E 029°44'0 0.0
2017-Oct-14 21:54N 70°04' E 029°44'0 0.0
2017-Oct-14 21:21N 70°04' E 029°44'0 0.0
2017-Oct-14 21:00N 70°04' E 029°44'0 0.0
2017-Oct-14 20:30N 70°04' E 029°44'0 0.0
2017-Oct-14 19:51N 70°04' E 029°44'0 0.0
2017-Oct-14 19:27N 70°04' E 029°44'0 0.0
2017-Oct-14 18:48N 70°04' E 029°44'0 0.0
2017-Oct-14 18:21N 70°04' E 029°44'0 0.0
2017-Oct-14 17:57N 70°04' E 029°44'0 0.0
2017-Oct-14 17:24N 70°04' E 029°44'0 0.0
2017-Oct-14 16:57N 70°04' E 029°44'0 0.0
2017-Oct-14 16:30N 70°04' E 029°44'0 0.0
2017-Oct-14 16:00N 70°04' E 029°44'0 0.0
2017-Oct-14 15:18N 70°04' E 029°44'0 0.0
2017-Oct-14 14:33N 70°04' E 029°44'0 0.0
2017-Oct-14 14:27N 70°04' E 029°44'0 0.0
2017-Oct-14 14:00N 70°04' E 029°44'0 0.0
2017-Oct-14 07:45N 70°04' E 029°44'0 0.0
2017-Oct-14 07:30N 70°04' E 029°44'0 0.0
2017-Oct-14 07:00N 70°04' E 029°44'0 0.0
2017-Oct-14 05:36N 70°04' E 029°44'0 0.0
2017-Oct-14 05:30N 70°04' E 029°44'0 0.0
2017-Oct-14 04:57N 70°04' E 029°44'0 0.0
2017-Oct-14 04:30N 70°04' E 029°44'0 0.0
2017-Oct-14 04:00N 70°04' E 029°44'0 0.0
2017-Oct-14 03:30N 70°04' E 029°44'0 0.0
2017-Oct-14 03:00N 70°04' E 029°44'0 0.0
2017-Oct-14 02:30N 70°04' E 029°44'0 0.0
2017-Oct-14 01:57N 70°04' E 029°44'0 0.0
2017-Oct-14 01:24N 70°04' E 029°44'0 0.0
2017-Oct-14 00:42N 70°04' E 029°44'0 0.0
2017-Oct-13 23:06N 70°04' E 029°44'0 0.0
2017-Oct-13 21:24N 70°04' E 029°44'0 0.0
2017-Oct-13 15:36N 70°04' E 029°44'0 0.0
2017-Oct-13 15:18N 70°04' E 029°44'0 0.0
2017-Oct-13 14:48N 70°04' E 029°44'0 0.0
2017-Oct-13 14:30N 70°04' E 029°44'0 0.0
2017-Oct-13 12:39N 70°04' E 029°44'0 0.0
2017-Oct-13 12:27N 70°04' E 029°44'0 0.0
2017-Oct-13 11:57N 70°04' E 029°44'0 0.0
2017-Oct-13 11:21N 70°04' E 029°44'0 0.0
2017-Oct-13 10:57N 70°04' E 029°44'0 0.0
2017-Oct-13 10:24N 70°04' E 029°44'0 0.0
2017-Oct-13 10:00N 70°04' E 029°44'0 0.0
2017-Oct-13 09:24N 70°04' E 029°44'0 0.0
2017-Oct-13 09:00N 70°04' E 029°44'0 0.0
2017-Oct-13 08:21N 70°04' E 029°44'0 0.0
2017-Oct-13 03:27N 70°04' E 029°44'0 0.0
2017-Oct-13 02:15N 70°04' E 029°44'0 0.0
2017-Oct-13 02:00N 70°04' E 029°44'0 0.0
2017-Oct-13 01:30N 70°04' E 029°44'0 0.0
2017-Oct-13 00:54N 70°04' E 029°44'0 0.0
2017-Oct-12 23:54N 70°04' E 029°44'0 0.0
2017-Oct-12 23:15N 70°04' E 029°44'0 0.0
2017-Oct-12 22:57N 70°04' E 029°44'0 0.0
2017-Oct-12 21:48N 70°04' E 029°44'0 0.0
2017-Oct-12 21:27N 70°04' E 029°44'0 0.0
2017-Oct-12 21:00N 70°04' E 029°44'0 0.0
2017-Oct-12 17:33N 70°04' E 029°44'0 0.0
2017-Oct-12 17:30N 70°04' E 029°44'0 0.0
2017-Oct-12 16:57N 70°04' E 029°44'0 0.0
2017-Oct-12 16:18N 70°04' E 029°44'0 0.0
2017-Oct-12 15:51N 70°04' E 029°44'0 0.0
2017-Oct-12 15:18N 70°04' E 029°44'0 0.0
2017-Oct-12 14:48N 70°04' E 029°44'0 0.0
2017-Oct-12 14:30N 70°04' E 029°44'0 0.0
2017-Oct-12 14:00N 70°04' E 029°44'0 0.0
2017-Oct-12 13:30N 70°04' E 029°44'0 0.5
2017-Oct-12 12:59N 70°04' E 029°45'0 0.0
2017-Oct-12 12:29N 70°04' E 029°45'0 0.0
2017-Oct-12 11:59N 70°04' E 029°45'1 1.1
2017-Oct-12 11:29N 70°04' E 029°43'3 5.8
2017-Oct-12 10:59N 70°04' E 029°35'1 1.6
2017-Oct-12 10:28N 70°04' E 029°32'2 3.2
2017-Oct-12 09:57N 70°04' E 029°37'0 0.3
2017-Oct-12 09:28N 70°03' E 029°37'0 0.3
2017-Oct-12 08:58N 70°04' E 029°37'0 0.2
2017-Oct-12 08:25N 70°04' E 029°37'0 0.9
2017-Oct-12 08:00N 70°04' E 029°38'2 0.3
2017-Oct-12 00:21N 70°04' E 029°44'0 0.0
2017-Oct-11 23:42N 70°04' E 029°44'0 0.0
2017-Oct-11 23:12N 70°04' E 029°44'0 0.0
2017-Oct-11 23:00N 70°04' E 029°44'0 0.0
2017-Oct-11 21:45N 70°04' E 029°44'0 0.0
2017-Oct-11 21:12N 70°04' E 029°44'0 0.0
2017-Oct-11 17:24N 70°04' E 029°44'0 0.0
2017-Oct-11 16:57N 70°04' E 029°44'0 0.0
2017-Oct-11 00:00N 70°04' E 029°44'0 0.0
2017-Oct-10 23:27N 70°04' E 029°44'0 0.0
2017-Oct-10 23:00N 70°04' E 029°44'0 0.0
2017-Oct-10 22:30N 70°04' E 029°44'0 0.0
2017-Oct-10 21:48N 70°04' E 029°44'0 0.0
2017-Oct-10 21:30N 70°04' E 029°44'0 0.0
2017-Oct-10 21:00N 70°04' E 029°44'0 0.0
2017-Oct-10 20:12N 70°04' E 029°44'0 0.0
2017-Oct-10 20:00N 70°04' E 029°44'0 0.0
2017-Oct-10 19:21N 70°04' E 029°44'0 0.0
2017-Oct-10 18:36N 70°04' E 029°44'0 0.0
2017-Oct-10 18:21N 70°04' E 029°44'0 0.0
2017-Oct-10 18:00N 70°04' E 029°44'0 0.0
2017-Oct-10 17:21N 70°04' E 029°44'0 0.0
2017-Oct-10 16:57N 70°04' E 029°44'0 0.0
2017-Oct-10 16:30N 70°04' E 029°44'0 0.0
2017-Oct-10 16:00N 70°04' E 029°44'0 0.0
2017-Oct-10 15:27N 70°04' E 029°44'0 0.0
2017-Oct-10 15:00N 70°04' E 029°44'0 0.0
2017-Oct-10 14:00N 70°04' E 029°44'0 0.0
2017-Oct-10 13:24N 70°04' E 029°44'0 0.0
2017-Oct-10 13:00N 70°04' E 029°44'0 0.0
2017-Oct-10 12:27N 70°04' E 029°44'0 0.0
2017-Oct-10 12:00N 70°04' E 029°44'0 0.0
2017-Oct-10 11:30N 70°04' E 029°44'0 0.0
2017-Oct-10 11:00N 70°04' E 029°44'0 0.0
2017-Oct-10 10:30N 70°04' E 029°44'0 0.0
2017-Oct-10 03:57N 70°04' E 029°44'0 0.0
2017-Oct-10 03:30N 70°04' E 029°44'0 0.0
2017-Oct-10 03:00N 70°04' E 029°44'0 0.0
2017-Oct-10 02:30N 70°04' E 029°44'0 0.0
2017-Oct-10 02:00N 70°04' E 029°44'0 0.0
2017-Oct-10 01:30N 70°04' E 029°44'0 0.0
2017-Oct-10 01:00N 70°04' E 029°44'0 0.0
2017-Oct-10 00:27N 70°04' E 029°44'0 0.0
2017-Oct-10 00:00N 70°04' E 029°44'0 0.0
2017-Oct-09 23:30N 70°04' E 029°44'0 0.0
2017-Oct-09 23:00N 70°04' E 029°44'0 0.0
2017-Oct-09 22:27N 70°04' E 029°44'0 0.0
2017-Oct-09 21:54N 70°04' E 029°44'0 0.0
2017-Oct-09 21:27N 70°04' E 029°44'0 0.0
2017-Oct-09 15:09N 70°04' E 029°44'0 0.0
2017-Oct-09 15:00N 70°04' E 029°44'0 0.0
2017-Oct-09 14:26N 70°04' E 029°44'2 4.3
2017-Oct-09 14:00N 70°04' E 029°39'2 4.0
2017-Oct-09 13:30N 70°04' E 029°45'0 0.1
2017-Oct-09 12:58N 70°04' E 029°45'0 0.0
2017-Oct-09 12:30N 70°04' E 029°45'0 0.0
2017-Oct-09 12:00N 70°04' E 029°45'0 0.7
2017-Oct-09 11:28N 70°04' E 029°44'2 4.7
2017-Oct-09 11:00N 70°04' E 029°38'0 0.2
2017-Oct-09 10:28N 70°04' E 029°37'0 0.0
2017-Oct-09 09:58N 70°04' E 029°37'2 3.6
2017-Oct-09 09:28N 70°05' E 029°33'1 1.3
2017-Oct-09 09:00N 70°04' E 029°33'0 0.0
2017-Oct-09 08:30N 70°04' E 029°34'1 2.8
2017-Oct-09 07:59N 70°03' E 029°37'1 1.7
2017-Oct-09 07:30N 70°03' E 029°40'0 0.1
2017-Oct-09 07:00N 70°03' E 029°40'2 2.2
2017-Oct-09 06:05N 70°04' E 029°44'0 0.0
2017-Oct-09 05:56N 70°04' E 029°44'0 0.0
2017-Oct-09 05:29N 70°04' E 029°44'0 0.0
2017-Oct-09 04:56N 70°04' E 029°44'0 0.0
2017-Oct-09 04:29N 70°04' E 029°44'0 0.0
2017-Oct-09 03:59N 70°04' E 029°44'0 0.0
2017-Oct-09 03:29N 70°04' E 029°44'0 0.0
2017-Oct-09 02:59N 70°04' E 029°44'0 0.0
2017-Oct-09 02:29N 70°04' E 029°44'0 0.0
2017-Oct-09 01:59N 70°04' E 029°44'0 0.0
2017-Oct-09 01:29N 70°04' E 029°44'0 0.0
2017-Oct-09 00:59N 70°04' E 029°44'0 0.0
2017-Oct-09 00:29N 70°04' E 029°44'0 0.0
2017-Oct-08 23:59N 70°04' E 029°44'0 0.0
2017-Oct-08 23:29N 70°04' E 029°44'0 0.0
2017-Oct-08 22:59N 70°04' E 029°44'0 0.0
2017-Oct-08 22:29N 70°04' E 029°44'0 0.0
2017-Oct-08 21:59N 70°04' E 029°44'0 0.0
2017-Oct-08 19:38N 70°04' E 029°44'0 0.0
2017-Oct-08 19:23N 70°04' E 029°44'0 0.0
2017-Oct-08 17:23N 70°04' E 029°44'0 0.0
2017-Oct-08 16:59N 70°04' E 029°44'0 0.0
2017-Oct-08 16:29N 70°04' E 029°44'0 0.0
2017-Oct-08 15:59N 70°04' E 029°44'0 0.0
2017-Oct-08 15:29N 70°04' E 029°44'0 0.0
2017-Oct-08 14:56N 70°04' E 029°44'0 0.0
2017-Oct-08 14:23N 70°04' E 029°44'0 0.0
2017-Oct-08 13:53N 70°04' E 029°44'0 0.0
2017-Oct-08 13:29N 70°04' E 029°44'0 0.0
2017-Oct-08 12:59N 70°04' E 029°44'0 0.0
2017-Oct-08 12:29N 70°04' E 029°44'0 0.0
2017-Oct-08 11:59N 70°04' E 029°44'0 0.0
2017-Oct-08 11:29N 70°04' E 029°44'0 0.0
2017-Oct-08 10:59N 70°04' E 029°44'0 0.0
2017-Oct-08 10:29N 70°04' E 029°44'0 0.0
2017-Oct-08 09:59N 70°04' E 029°44'0 0.0
2017-Oct-08 09:29N 70°04' E 029°44'0 0.0
2017-Oct-08 08:56N 70°04' E 029°44'0 0.0
2017-Oct-08 08:29N 70°04' E 029°44'0 0.0
2017-Oct-08 04:41N 70°04' E 029°44'0 0.0
2017-Oct-08 02:23N 70°04' E 029°44'0 0.0
2017-Oct-08 01:59N 70°04' E 029°44'0 0.0
2017-Oct-08 01:11N 70°04' E 029°44'0 0.0
2017-Oct-08 00:59N 70°04' E 029°44'0 0.0
2017-Oct-08 00:29N 70°04' E 029°44'0 0.0
2017-Oct-07 23:59N 70°04' E 029°44'0 0.0
2017-Oct-07 23:26N 70°04' E 029°44'0 0.0
2017-Oct-07 22:56N 70°04' E 029°44'0 0.0
2017-Oct-07 22:29N 70°04' E 029°44'0 0.0
2017-Oct-07 21:59N 70°04' E 029°44'0 0.0
2017-Oct-07 21:26N 70°04' E 029°44'  

Dump ship's entire track history